Time;durP1;ratioP1;P1;durP2;ratioP2;P2;SDS_P1;SDS_P2;PMS_P1;PMS_P2;Temp;Humidity;BMP_temperature;BMP_pressure;BME280_temperature;BME280_humidity;BME280_pressure;Samples;Min_cycle;Max_cycle;Signal;HPM_P1;HPM_P2
2021/05/29 00:00:54;;;;;;;10.60;5.00;;;9.60;99.90;;;;;;5088829;28;20099;-78
2021/05/29 00:03:20;;;;;;;8.27;4.68;;;9.60;99.90;;;;;;5067877;28;20043;-78
2021/05/29 00:05:46;;;;;;;8.63;5.18;;;9.50;99.90;;;;;;5087878;28;20052;-78
2021/05/29 00:08:12;;;;;;;10.82;4.88;;;9.50;99.90;;;;;;5084299;28;20039;-78
2021/05/29 00:10:40;;;;;;;11.48;5.00;;;9.40;99.90;;;;;;5070528;28;20021;-78
2021/05/29 00:13:06;;;;;;;6.35;4.45;;;9.40;99.90;;;;;;5072301;28;20040;-78
2021/05/29 00:15:33;;;;;;;7.18;4.40;;;9.40;99.90;;;;;;5090778;28;20527;-78
2021/05/29 00:17:58;;;;;;;6.38;4.10;;;9.40;99.90;;;;;;5086869;28;20545;-78
2021/05/29 00:20:24;;;;;;;7.53;4.15;;;9.40;99.90;;;;;;5069555;28;20029;-78
2021/05/29 00:22:49;;;;;;;7.47;4.13;;;9.40;99.90;;;;;;5076235;28;20086;-78
2021/05/29 00:25:16;;;;;;;6.45;4.13;;;9.50;99.90;;;;;;5072177;28;20482;-77
2021/05/29 00:27:42;;;;;;;8.98;4.35;;;9.40;99.90;;;;;;5075298;28;20031;-78
2021/05/29 00:30:21;;;;;;;5.95;3.75;;;9.40;99.90;;;;;;5084977;28;20028;-78
2021/05/29 00:32:46;;;;;;;5.90;4.05;;;9.40;99.90;;;;;;5086476;28;20036;-78
2021/05/29 00:35:12;;;;;;;7.38;4.07;;;9.40;99.90;;;;;;5075978;28;20023;-78
2021/05/29 00:37:38;;;;;;;5.28;3.90;;;9.40;99.90;;;;;;5068053;28;20479;-78
2021/05/29 00:40:07;;;;;;;5.43;3.65;;;9.40;99.90;;;;;;5075275;28;20024;-78
2021/05/29 00:42:33;;;;;;;6.70;4.07;;;9.30;99.90;;;;;;5078160;28;20367;-78
2021/05/29 00:45:00;;;;;;;7.00;4.43;;;9.40;99.90;;;;;;5068196;28;20080;-77
2021/05/29 00:47:28;;;;;;;6.00;3.67;;;9.40;99.90;;;;;;5067275;28;20461;-78
2021/05/29 00:49:56;;;;;;;4.85;3.42;;;9.30;99.90;;;;;;5064311;28;20023;-78
2021/05/29 00:52:23;;;;;;;6.65;4.03;;;9.30;99.90;;;;;;5080200;28;20081;-78
2021/05/29 00:54:49;;;;;;;8.15;4.28;;;9.30;99.90;;;;;;5079156;28;20107;-78
2021/05/29 00:57:15;;;;;;;10.63;4.53;;;9.30;99.90;;;;;;5068872;28;20024;-78
2021/05/29 00:59:41;;;;;;;8.10;3.97;;;9.40;99.90;;;;;;5082579;28;20777;-78
2021/05/29 01:02:09;;;;;;;10.82;4.60;;;9.40;99.90;;;;;;5080740;28;20402;-78
2021/05/29 01:04:35;;;;;;;6.95;3.85;;;9.40;99.90;;;;;;5085939;28;20440;-78
2021/05/29 01:07:02;;;;;;;7.88;4.45;;;9.30;99.90;;;;;;5062180;28;20047;-78
2021/05/29 01:09:27;;;;;;;7.55;4.70;;;9.30;99.90;;;;;;5057394;28;20057;-78
2021/05/29 01:11:53;;;;;;;16.52;3.80;;;9.40;99.90;;;;;;5076593;28;20062;-78
2021/05/29 01:14:19;;;;;;;8.85;4.03;;;9.30;99.90;;;;;;5084289;28;20040;-78
2021/05/29 01:16:59;;;;;;;6.93;4.30;;;9.30;99.90;;;;;;5072169;28;20066;-77
2021/05/29 01:19:24;;;;;;;9.13;4.20;;;9.20;99.90;;;;;;5063579;28;20064;-78
2021/05/29 01:21:50;;;;;;;9.18;4.55;;;9.30;99.90;;;;;;5073207;28;20055;-78
2021/05/29 01:24:20;;;;;;;7.20;3.85;;;9.20;99.90;;;;;;5085170;28;20024;-78
2021/05/29 01:26:47;;;;;;;8.88;4.40;;;9.20;99.90;;;;;;5058164;28;20508;-77
2021/05/29 01:29:14;;;;;;;9.45;3.97;;;9.10;99.90;;;;;;5053353;28;20044;-78
2021/05/29 01:31:40;;;;;;;7.63;3.65;;;9.10;99.90;;;;;;5078767;28;20043;-78
2021/05/29 01:34:05;;;;;;;7.28;4.22;;;9.10;99.90;;;;;;5085590;28;20028;-78
2021/05/29 01:36:31;;;;;;;10.65;4.47;;;9.10;99.90;;;;;;5072735;28;20024;-78
2021/05/29 01:39:05;;;;;;;7.90;4.43;;;9.00;99.90;;;;;;5076967;28;20485;-78
2021/05/29 01:41:30;;;;;;;7.45;4.63;;;9.00;99.90;;;;;;5076578;28;20116;-78
2021/05/29 01:43:56;;;;;;;9.80;4.38;;;9.00;99.90;;;;;;5079633;28;20132;-78
2021/05/29 01:46:22;;;;;;;8.13;4.03;;;8.90;99.90;;;;;;5064650;28;20497;-78
2021/05/29 01:48:49;;;;;;;8.20;4.10;;;8.90;99.90;;;;;;5074809;28;20020;-78
2021/05/29 01:51:24;;;;;;;5.88;3.90;;;8.80;99.90;;;;;;5062297;28;20040;-77
2021/05/29 01:53:51;;;;;;;7.82;3.83;;;8.80;99.90;;;;;;5074931;28;20498;-78
2021/05/29 01:56:16;;;;;;;8.48;4.43;;;8.80;99.90;;;;;;5058271;28;20036;-78
2021/05/29 01:58:43;;;;;;;9.85;4.43;;;8.80;99.90;;;;;;5060969;28;20020;-78
2021/05/29 02:01:12;;;;;;;9.32;4.28;;;8.80;99.90;;;;;;5068698;28;20033;-78
2021/05/29 02:03:38;;;;;;;9.35;4.50;;;8.80;99.90;;;;;;5078122;28;20039;-78
2021/05/29 02:06:04;;;;;;;7.93;4.57;;;8.90;99.90;;;;;;5074116;28;20558;-78
2021/05/29 02:08:30;;;;;;;9.27;4.40;;;8.90;99.90;;;;;;5056465;28;20033;-78
2021/05/29 02:10:56;;;;;;;9.07;5.43;;;9.00;99.90;;;;;;5064875;28;20020;-78
2021/05/29 02:13:27;;;;;;;7.03;4.72;;;9.10;99.90;;;;;;5078820;28;20383;-78
2021/05/29 02:15:54;;;;;;;9.20;4.78;;;9.10;99.90;;;;;;5062145;28;20575;-78
2021/05/29 02:18:20;;;;;;;9.57;4.85;;;9.10;99.90;;;;;;5068023;28;20070;-78
2021/05/29 02:21:03;;;;;;;10.98;4.70;;;9.10;99.90;;;;;;5066782;28;20501;-78
2021/05/29 02:23:45;;;;;;;6.90;4.57;;;9.20;99.90;;;;;;5067143;28;20082;-77
2021/05/29 02:26:14;;;;;;;8.38;4.55;;;9.20;99.90;;;;;;5064962;28;20046;-78
2021/05/29 02:28:42;;;;;;;10.13;4.40;;;9.20;99.90;;;;;;5074498;28;20048;-78
2021/05/29 02:31:10;;;;;;;8.73;4.53;;;9.30;99.90;;;;;;5062722;28;20033;-77
2021/05/29 02:33:36;;;;;;;12.18;4.43;;;9.20;99.90;;;;;;5084378;28;20035;-78
2021/05/29 02:36:03;;;;;;;12.30;4.47;;;9.30;99.90;;;;;;5082428;28;20021;-78
2021/05/29 02:38:30;;;;;;;12.73;4.50;;;9.30;99.90;;;;;;5076179;28;20028;-78
2021/05/29 02:40:57;;;;;;;7.85;4.40;;;9.30;99.90;;;;;;5057456;28;20026;-78
2021/05/29 02:43:23;;;;;;;7.47;4.47;;;9.30;99.90;;;;;;5069566;28;20122;-78
2021/05/29 02:45:48;;;;;;;10.27;4.85;;;9.30;99.90;;;;;;5070619;28;20119;-78
2021/05/29 02:48:14;;;;;;;11.02;4.88;;;9.30;99.90;;;;;;5058527;28;20025;-78
2021/05/29 02:50:43;;;;;;;9.27;4.80;;;9.30;99.90;;;;;;5071459;28;20029;-78
2021/05/29 02:53:12;;;;;;;8.27;3.83;;;9.30;99.90;;;;;;5071351;28;20391;-78
2021/05/29 02:55:39;;;;;;;8.70;4.30;;;9.20;99.90;;;;;;5073476;28;20581;-78
2021/05/29 02:58:08;;;;;;;8.07;4.45;;;9.20;99.90;;;;;;5065617;28;20031;-78
2021/05/29 03:00:42;;;;;;;11.07;4.60;;;9.20;99.90;;;;;;5070552;28;20562;-78
2021/05/29 03:03:08;;;;;;;8.40;4.80;;;9.20;99.90;;;;;;5059053;28;20037;-78
2021/05/29 03:05:35;;;;;;;6.45;4.32;;;9.30;99.90;;;;;;5056625;28;20110;-78
2021/05/29 03:08:01;;;;;;;10.95;5.35;;;9.30;99.90;;;;;;5069475;28;20035;-78
2021/05/29 03:10:26;;;;;;;12.88;4.95;;;9.20;99.90;;;;;;5074218;28;20020;-78
2021/05/29 03:12:52;;;;;;;9.15;5.28;;;9.30;99.90;;;;;;5057134;28;20041;-78
2021/05/29 03:15:20;;;;;;;8.82;4.85;;;9.30;99.90;;;;;;5068272;28;20066;-78
2021/05/29 03:17:46;;;;;;;8.43;5.18;;;9.30;99.90;;;;;;5057711;28;20028;-78
2021/05/29 03:20:15;;;;;;;7.97;4.90;;;9.30;99.90;;;;;;5072741;28;20093;-78
2021/05/29 03:22:42;;;;;;;9.52;5.07;;;9.30;99.90;;;;;;5053100;28;20024;-77
2021/05/29 03:25:08;;;;;;;7.70;4.20;;;9.30;99.90;;;;;;5068993;28;20028;-78
2021/05/29 03:27:35;;;;;;;9.60;4.75;;;9.10;99.90;;;;;;5067086;28;20394;-78
2021/05/29 03:30:03;;;;;;;8.80;4.50;;;9.10;99.90;;;;;;5064682;28;20032;-78
2021/05/29 03:32:28;;;;;;;7.00;4.57;;;9.10;99.90;;;;;;5076004;28;20020;-77
2021/05/29 03:34:54;;;;;;;8.68;4.68;;;9.10;99.90;;;;;;5063997;28;20017;-79
2021/05/29 03:37:19;;;;;;;8.82;4.80;;;9.20;99.90;;;;;;5064526;28;20029;-79
2021/05/29 03:39:45;;;;;;;10.88;5.28;;;9.30;99.90;;;;;;5077663;28;20264;-78
2021/05/29 03:42:10;;;;;;;8.93;5.20;;;9.40;99.90;;;;;;5072777;28;20020;-79
2021/05/29 03:44:36;;;;;;;9.70;5.63;;;9.50;99.90;;;;;;5062387;28;20036;-78
2021/05/29 03:47:01;;;;;;;12.18;5.18;;;9.60;99.90;;;;;;5072373;28;20028;-78
2021/05/29 03:49:27;;;;;;;11.82;5.68;;;9.70;99.90;;;;;;5084267;28;20115;-78
2021/05/29 03:51:53;;;;;;;11.68;6.18;;;9.70;99.90;;;;;;5072497;28;20415;-78
2021/05/29 03:54:19;;;;;;;13.65;6.18;;;9.80;99.90;;;;;;5071218;28;20032;-78
2021/05/29 03:56:45;;;;;;;15.05;6.25;;;9.80;99.90;;;;;;5073565;28;20035;-78
2021/05/29 03:59:14;;;;;;;11.00;6.07;;;9.80;99.90;;;;;;5067157;28;20028;-78
2021/05/29 04:01:41;;;;;;;11.88;6.28;;;9.80;99.90;;;;;;5072177;28;20047;-77
2021/05/29 04:04:07;;;;;;;12.07;6.97;;;9.80;99.90;;;;;;5066764;28;20099;-78
2021/05/29 04:06:34;;;;;;;12.82;6.72;;;9.90;99.90;;;;;;5075757;28;20056;-78
2021/05/29 04:09:00;;;;;;;12.32;6.05;;;10.00;99.90;;;;;;5066173;28;20371;-77
2021/05/29 04:11:25;;;;;;;12.80;6.22;;;10.00;99.90;;;;;;5072309;28;20115;-78
2021/05/29 04:13:51;;;;;;;10.57;6.20;;;10.00;99.90;;;;;;5067960;28;20119;-77
2021/05/29 04:16:16;;;;;;;11.35;6.10;;;10.00;99.90;;;;;;5072380;28;20028;-78
2021/05/29 04:18:42;;;;;;;13.77;6.53;;;10.00;99.90;;;;;;5061196;28;20142;-78
2021/05/29 04:21:10;;;;;;;22.52;7.03;;;10.10;99.90;;;;;;5075287;28;20096;-77
2021/05/29 04:23:35;;;;;;;12.85;5.72;;;10.10;99.90;;;;;;5085307;28;20024;-78
2021/05/29 04:26:01;;;;;;;13.00;6.55;;;10.10;99.90;;;;;;5070679;28;20025;-78
2021/05/29 04:28:26;;;;;;;11.18;6.22;;;10.10;99.90;;;;;;5060645;28;20032;-77
2021/05/29 04:30:52;;;;;;;13.15;6.80;;;10.10;99.90;;;;;;5074081;28;20544;-77
2021/05/29 04:33:18;;;;;;;10.40;6.60;;;10.20;99.90;;;;;;5073547;28;20059;-77
2021/05/29 04:35:43;;;;;;;13.55;6.38;;;10.20;99.90;;;;;;5070221;28;20022;-77
2021/05/29 04:38:08;;;;;;;11.55;7.15;;;10.30;99.90;;;;;;5073856;28;20020;-78
2021/05/29 04:40:34;;;;;;;10.43;6.22;;;10.20;99.90;;;;;;5086516;28;20106;-78
2021/05/29 04:43:00;;;;;;;13.18;6.45;;;10.20;99.90;;;;;;5073509;28;20115;-78
2021/05/29 04:45:26;;;;;;;11.82;7.15;;;10.20;99.90;;;;;;5067433;28;20028;-78
2021/05/29 04:47:53;;;;;;;12.32;6.43;;;10.20;99.90;;;;;;5078926;28;20035;-78
2021/05/29 04:50:20;;;;;;;11.10;6.60;;;10.30;99.90;;;;;;5089763;28;20502;-78
2021/05/29 04:52:46;;;;;;;11.05;6.65;;;10.30;99.90;;;;;;5066886;28;20036;-78
2021/05/29 04:55:12;;;;;;;14.23;6.28;;;10.30;99.90;;;;;;5087262;28;20099;-77
2021/05/29 04:57:38;;;;;;;10.73;6.55;;;10.40;99.90;;;;;;5057826;28;20104;-77
2021/05/29 05:00:06;;;;;;;11.13;6.35;;;10.40;99.90;;;;;;5072983;28;20386;-78
2021/05/29 05:02:32;;;;;;;11.45;6.20;;;10.40;99.90;;;;;;5072780;28;20514;-78
2021/05/29 05:04:57;;;;;;;10.40;6.60;;;10.40;99.90;;;;;;5060252;28;20020;-77
2021/05/29 05:07:23;;;;;;;11.68;6.75;;;10.40;99.90;;;;;;5065673;28;20051;-78
2021/05/29 05:09:48;;;;;;;12.05;6.80;;;10.40;99.90;;;;;;5063155;28;20024;-78
2021/05/29 05:12:14;;;;;;;11.43;6.57;;;10.50;99.90;;;;;;5060401;28;20127;-78
2021/05/29 05:14:40;;;;;;;11.57;6.60;;;10.50;99.90;;;;;;5069944;28;20032;-78
2021/05/29 05:17:05;;;;;;;10.48;6.43;;;10.50;99.90;;;;;;5069571;28;20087;-78
2021/05/29 05:19:31;;;;;;;10.85;6.38;;;10.40;99.90;;;;;;5063585;28;20062;-78
2021/05/29 05:21:57;;;;;;;14.85;6.80;;;10.40;99.90;;;;;;5073258;28;20021;-78
2021/05/29 05:24:22;;;;;;;10.57;6.97;;;10.50;99.90;;;;;;5073385;28;20550;-79
2021/05/29 05:26:48;;;;;;;10.45;6.80;;;10.40;99.90;;;;;;5067009;28;20020;-78
2021/05/29 05:29:13;;;;;;;11.65;6.72;;;10.50;99.90;;;;;;5057431;28;20032;-79
2021/05/29 05:31:41;;;;;;;14.40;6.65;;;10.50;99.90;;;;;;5073469;28;20124;-78
2021/05/29 05:34:09;;;;;;;12.35;6.95;;;10.50;99.90;;;;;;5056506;28;20501;-78
2021/05/29 05:36:36;;;;;;;13.90;7.70;;;10.60;99.90;;;;;;5072488;28;20028;-78
2021/05/29 05:39:05;;;;;;;12.50;7.13;;;10.60;99.90;;;;;;5064000;28;20077;-77
2021/05/29 05:41:31;;;;;;;12.75;7.10;;;10.70;99.90;;;;;;5055627;28;20029;-79
2021/05/29 05:43:57;;;;;;;13.98;7.18;;;10.80;99.90;;;;;;5064785;28;20039;-78
2021/05/29 05:46:23;;;;;;;12.13;6.78;;;10.80;99.90;;;;;;5068801;28;20028;-78
2021/05/29 05:48:49;;;;;;;11.40;6.50;;;10.80;99.90;;;;;;5070244;28;20032;-76
2021/05/29 05:51:14;;;;;;;13.07;6.72;;;10.90;99.90;;;;;;5086916;28;20096;-77
2021/05/29 05:53:40;;;;;;;12.00;7.38;;;11.00;99.90;;;;;;5064739;28;20279;-77
2021/05/29 05:56:06;;;;;;;13.35;7.22;;;11.00;99.90;;;;;;5064710;28;20021;-77
2021/05/29 05:58:34;;;;;;;15.10;7.15;;;11.10;99.90;;;;;;5071260;28;20027;-76
2021/05/29 06:01:00;;;;;;;14.38;6.28;;;11.10;99.90;;;;;;5086986;28;20377;-77
2021/05/29 06:03:26;;;;;;;13.73;6.85;;;11.10;99.90;;;;;;5063744;28;20584;-77
2021/05/29 06:05:52;;;;;;;10.93;6.60;;;11.10;99.90;;;;;;5073358;28;20052;-77
2021/05/29 06:08:29;;;;;;;15.32;7.53;;;11.20;99.90;;;;;;5062647;28;20047;-77
2021/05/29 06:10:55;;;;;;;12.73;6.68;;;11.30;99.90;;;;;;5062271;28;20032;-77
2021/05/29 06:21:37;;;;;;;13.98;7.55;;;11.60;99.90;;;;;;5079958;28;20608;-78
2021/05/29 06:24:03;;;;;;;12.88;7.47;;;11.60;99.90;;;;;;5062548;28;20029;-77
2021/05/29 06:26:28;;;;;;;17.08;7.80;;;11.60;99.90;;;;;;5063294;28;20032;-77
2021/05/29 06:28:54;;;;;;;16.23;8.13;;;11.60;99.90;;;;;;5072866;28;21640;-78
2021/05/29 06:31:20;;;;;;;17.02;7.65;;;11.70;99.90;;;;;;5063446;28;20029;-77
2021/05/29 06:33:46;;;;;;;13.52;7.13;;;11.80;99.90;;;;;;5071771;28;20056;-78
2021/05/29 06:36:11;;;;;;;16.35;6.97;;;11.80;99.90;;;;;;5081553;28;20074;-78
2021/05/29 06:38:37;;;;;;;15.50;6.78;;;11.90;99.90;;;;;;5068662;28;20028;-77
2021/05/29 06:41:03;;;;;;;12.15;6.93;;;11.90;99.90;;;;;;5063400;28;20069;-77
2021/05/29 06:43:29;;;;;;;14.02;7.10;;;12.00;99.90;;;;;;5066036;28;20031;-77
2021/05/29 06:45:55;;;;;;;12.90;6.97;;;12.00;99.90;;;;;;5071165;28;20032;-77
2021/05/29 06:48:21;;;;;;;14.35;6.72;;;12.00;99.90;;;;;;5080960;28;20542;-76
2021/05/29 06:50:52;;;;;;;11.45;6.45;;;12.00;99.90;;;;;;5071777;28;20086;-76
2021/05/29 06:53:19;;;;;;;15.50;6.30;;;12.10;99.90;;;;;;5070153;28;20032;-76
2021/05/29 06:58:48;;;;;;;13.40;6.45;;;12.40;99.90;;;;;;5064242;28;20498;-75
2021/05/29 07:01:15;;;;;;;14.27;6.65;;;12.50;99.90;;;;;;5064064;28;20020;-74
2021/05/29 07:03:41;;;;;;;12.70;6.43;;;12.60;99.90;;;;;;5061828;28;20024;-75
2021/05/29 07:06:06;;;;;;;13.00;6.07;;;12.70;99.90;;;;;;5066163;28;20477;-74
2021/05/29 07:08:32;;;;;;;12.77;6.15;;;12.90;99.90;;;;;;5062140;28;20036;-75
2021/05/29 07:10:57;;;;;;;11.63;6.20;;;12.90;99.90;;;;;;5066620;28;20024;-76
2021/05/29 07:13:23;;;;;;;10.68;6.00;;;12.90;99.90;;;;;;5073389;28;20043;-74
2021/05/29 07:15:48;;;;;;;12.77;6.43;;;13.00;99.90;;;;;;5065400;28;20527;-77
2021/05/29 07:18:24;;;;;;;9.30;5.85;;;13.10;99.90;;;;;;5062387;28;20032;-77
2021/05/29 07:24:00;;;;;;;10.18;4.85;;;13.10;99.90;;;;;;4999137;28;20049;-73
2021/05/29 07:26:29;;;;;;;11.20;5.72;;;13.10;99.90;;;;;;5077981;28;20115;-73
2021/05/29 07:28:55;;;;;;;9.27;5.47;;;13.20;99.90;;;;;;5075793;28;20784;-71
2021/05/29 07:31:23;;;;;;;10.32;5.40;;;13.30;99.90;;;;;;5070577;28;20024;-72
2021/05/29 07:33:51;;;;;;;9.68;4.78;;;13.40;99.90;;;;;;5071911;28;20112;-73
2021/05/29 07:36:18;;;;;;;13.02;5.40;;;13.50;99.90;;;;;;5076419;28;20047;-74
2021/05/29 07:38:44;;;;;;;11.00;5.70;;;13.60;99.90;;;;;;5076719;28;20098;-73
2021/05/29 07:41:10;;;;;;;10.07;5.50;;;13.70;99.90;;;;;;5070415;28;20039;-73
2021/05/29 07:43:36;;;;;;;10.73;5.25;;;13.70;99.90;;;;;;5075458;28;20044;-75
2021/05/29 07:46:03;;;;;;;11.80;5.57;;;13.80;99.90;;;;;;5074360;28;20375;-73
2021/05/29 07:48:30;;;;;;;17.90;4.65;;;13.90;99.90;;;;;;5081631;28;20052;-75
2021/05/29 07:51:00;;;;;;;8.10;4.88;;;13.90;99.90;;;;;;5068698;28;20028;-75
2021/05/29 07:53:28;;;;;;;11.15;5.53;;;13.90;99.90;;;;;;5072699;28;20116;-74
2021/05/29 07:55:55;;;;;;;8.50;5.63;;;13.90;99.90;;;;;;5078356;28;20047;-81
2021/05/29 07:58:20;;;;;;;10.38;5.50;;;13.80;99.90;;;;;;5077541;28;20058;-76
2021/05/29 08:00:50;;;;;;;10.82;5.53;;;13.90;99.90;;;;;;5072361;28;20052;-82
2021/05/29 08:03:16;;;;;;;12.88;5.28;;;14.00;99.90;;;;;;5071449;28;20032;-79
2021/05/29 08:05:45;;;;;;;11.27;4.38;;;14.10;99.90;;;;;;5092449;28;20036;-78
2021/05/29 08:08:10;;;;;;;7.93;4.50;;;14.10;99.90;;;;;;5067742;28;20159;-83
2021/05/29 08:10:36;;;;;;;11.40;3.63;;;14.20;99.90;;;;;;5058366;28;20028;-87
2021/05/29 08:13:02;;;;;;;8.13;4.45;;;14.20;99.90;;;;;;5085731;28;20582;-93
2021/05/29 08:15:28;;;;;;;7.80;4.15;;;;;;;;;;5078212;28;20016;-74
2021/05/29 08:17:54;;;;;;;120.72;23.63;;;14.40;99.90;;;;;;5079122;28;20043;-80
2021/05/29 08:20:19;;;;;;;21.35;7.93;;;14.70;99.90;;;;;;5070667;28;20120;-79
2021/05/29 08:22:45;;;;;;;17.60;5.65;;;14.80;99.90;;;;;;5074132;28;20093;-80
2021/05/29 08:25:11;;;;;;;9.57;4.78;;;14.80;99.90;;;;;;5077286;28;20114;-80
2021/05/29 08:27:36;;;;;;;17.85;6.80;;;14.90;99.90;;;;;;5083394;28;20071;-77
2021/05/29 08:30:03;;;;;;;7.25;4.43;;;15.00;99.90;;;;;;5083229;28;20032;-82
2021/05/29 08:32:28;;;;;;;21.58;7.47;;;15.00;99.90;;;;;;5078544;28;20028;-83
2021/05/29 08:34:54;;;;;;;12.25;5.85;;;15.00;99.90;;;;;;5077595;28;20032;-81
2021/05/29 08:37:19;;;;;;;6.28;3.92;;;15.20;99.90;;;;;;5076309;28;20054;-79
2021/05/29 08:39:45;;;;;;;8.50;3.97;;;15.30;99.90;;;;;;5073576;28;20032;-78
2021/05/29 08:42:11;;;;;;;8.00;4.10;;;15.50;99.90;;;;;;5069571;28;20168;-86
2021/05/29 08:44:37;;;;;;;11.05;3.88;;;15.40;99.60;;;;;;5066979;28;20024;-80
2021/05/29 08:47:03;;;;;;;6.50;3.95;;;15.10;99.70;;;;;;5062412;28;20086;-80
2021/05/29 08:49:29;;;;;;;6.07;3.85;;;14.90;99.90;;;;;;5068367;28;20025;-84
2021/05/29 08:51:57;;;;;;;8.75;4.10;;;14.90;99.90;;;;;;5072308;28;20047;-86
2021/05/29 08:54:23;;;;;;;5.50;3.65;;;14.70;99.90;;;;;;5075741;28;20063;-81
2021/05/29 08:56:49;;;;;;;5.35;3.55;;;14.70;99.90;;;;;;5082435;28;20493;-86
2021/05/29 08:59:15;;;;;;;8.35;3.60;;;14.80;99.90;;;;;;5069116;28;20031;-82
2021/05/29 09:01:40;;;;;;;6.03;3.97;;;14.80;99.40;;;;;;5074387;28;20426;-80
2021/05/29 09:04:08;;;;;;;9.07;4.22;;;14.60;99.90;;;;;;5076173;28;20036;-80
2021/05/29 09:06:33;;;;;;;11.13;4.30;;;14.50;99.90;;;;;;5070579;28;20043;-75
2021/05/29 09:09:04;;;;;;;5.43;3.55;;;14.50;99.90;;;;;;5063990;28;20033;-76
2021/05/29 09:11:48;;;;;;;8.40;3.90;;;14.60;99.90;;;;;;5064687;28;20049;-86
2021/05/29 09:14:26;;;;;;;4.35;3.45;;;14.70;99.90;;;;;;5067005;28;20055;-87
2021/05/29 09:17:03;;;;;;;5.90;3.72;;;14.70;99.90;;;;;;5071482;28;20094;-87
2021/05/29 09:20:04;;;;;;;7.57;3.78;;;14.80;99.90;;;;;;5072708;28;20017;-85
2021/05/29 09:22:54;;;;;;;9.05;3.80;;;15.10;99.90;;;;;;5081539;28;20032;-81
2021/05/29 09:25:24;;;;;;;6.35;3.90;;;15.50;98.70;;;;;;5082054;28;20051;-88
2021/05/29 09:27:54;;;;;;;10.90;3.45;;;15.60;96.20;;;;;;5060292;28;20501;-79
2021/05/29 09:30:40;;;;;;;5.47;3.75;;;15.80;97.00;;;;;;5072159;28;20096;-90
2021/05/29 09:33:17;;;;;;;6.25;3.25;;;15.80;95.50;;;;;;5066323;28;20025;-77
2021/05/29 09:35:47;;;;;;;6.13;3.70;;;15.60;96.20;;;;;;5067378;28;20101;-86
2021/05/29 09:38:14;;;;;;;5.68;3.33;;;15.60;96.60;;;;;;5062754;28;20020;-88
2021/05/29 09:40:49;;;;;;;5.72;3.33;;;15.60;95.60;;;;;;5067179;28;20502;-79
2021/05/29 09:43:14;;;;;;;6.88;3.30;;;15.80;96.40;;;;;;5054638;28;20036;-78
2021/05/29 09:45:40;;;;;;;4.57;3.20;;;16.00;94.40;;;;;;5063342;28;20125;-87
2021/05/29 09:48:19;;;;;;;6.07;3.55;;;16.20;94.60;;;;;;5060117;28;20060;-80
2021/05/29 09:51:05;;;;;;;7.43;3.22;;;16.10;90.80;;;;;;5070792;28;20032;-77
2021/05/29 09:53:33;;;;;;;6.50;3.45;;;16.00;91.40;;;;;;5073531;28;20102;-76
2021/05/29 09:55:59;;;;;;;5.60;3.15;;;15.90;92.40;;;;;;5061313;28;20035;-81
2021/05/29 09:58:51;;;;;;;7.28;3.63;;;15.80;91.60;;;;;;5067142;28;20025;-75
2021/05/29 10:01:35;;;;;;;;;;;15.80;92.50;;;;;;5072520;28;20386;-80
2021/05/29 10:04:01;;;;;;;9.77;4.45;;;15.70;92.20;;;;;;5078881;28;19919;-78
2021/05/29 10:06:26;;;;;;;5.03;3.08;;;15.80;94.80;;;;;;5082058;28;20154;-79
2021/05/29 10:08:53;;;;;;;5.32;2.90;;;16.00;93.40;;;;;;5062302;28;20553;-79
2021/05/29 10:11:18;;;;;;;3.90;2.65;;;16.30;92.40;;;;;;5068382;28;20035;-80
2021/05/29 10:13:44;;;;;;;6.78;4.10;;;16.40;90.40;;;;;;5075378;28;20032;-79
2021/05/29 10:16:10;;;;;;;8.68;3.53;;;16.40;90.50;;;;;;5068950;28;20630;-80
2021/05/29 10:18:36;;;;;;;9.55;4.18;;;16.30;89.80;;;;;;5057738;28;20593;-79
2021/05/29 10:21:02;;;;;;;6.13;3.42;;;16.50;90.50;;;;;;5068234;28;20067;-84
2021/05/29 10:23:28;;;;;;;5.35;3.40;;;16.50;87.30;;;;;;5062041;28;20035;-80
2021/05/29 10:25:56;;;;;;;10.75;4.10;;;16.50;90.80;;;;;;5066223;28;20096;-78
2021/05/29 10:28:22;;;;;;;9.48;3.13;;;16.60;91.50;;;;;;5070382;28;20394;-79
2021/05/29 10:30:50;;;;;;;5.43;3.55;;;16.60;91.60;;;;;;5061818;28;20032;-77
2021/05/29 10:33:19;;;;;;;10.23;3.80;;;16.70;91.90;;;;;;5063407;28;20036;-75
2021/05/29 10:35:45;;;;;;;7.72;4.10;;;16.70;88.30;;;;;;5064213;28;20017;-73
2021/05/29 10:38:12;;;;;;;7.82;3.60;;;16.80;90.40;;;;;;5062744;28;20040;-78
2021/05/29 10:40:40;;;;;;;5.70;3.65;;;16.80;90.50;;;;;;5068655;28;20035;-76
2021/05/29 10:43:16;;;;;;;16.48;4.78;;;16.90;88.60;;;;;;5063683;28;20063;-78
2021/05/29 10:45:50;;;;;;;5.00;4.10;;;16.90;89.90;;;;;;5064216;28;20028;-79
2021/05/29 10:48:18;;;;;;;7.63;4.15;;;16.90;89.00;;;;;;5061382;28;20111;-78
2021/05/29 10:53:46;;;;;;;6.55;3.70;;;16.70;88.50;;;;;;5066020;28;20058;-83
2021/05/29 10:56:31;;;;;;;7.60;3.40;;;16.80;91.60;;;;;;5074512;28;20061;-71
2021/05/29 10:59:12;;;;;;;7.45;3.47;;;17.40;88.40;;;;;;5065125;28;20482;-71
2021/05/29 11:01:42;;;;;;;4.40;3.00;;;17.40;86.80;;;;;;5075575;28;20050;-71
2021/05/29 11:04:17;;;;;;;6.22;3.58;;;17.20;85.40;;;;;;5059833;28;20394;-70
2021/05/29 11:06:49;;;;;;;5.78;3.60;;;17.30;89.10;;;;;;5066894;28;20047;-71
2021/05/29 11:09:16;;;;;;;7.93;3.30;;;17.60;85.50;;;;;;5069230;28;20035;-70
2021/05/29 11:12:22;;;;;;;5.13;3.40;;;18.30;88.00;;;;;;5066605;28;20036;-72
2021/05/29 11:15:00;;;;;;;7.93;3.10;;;18.80;82.20;;;;;;5065110;28;20055;-70
2021/05/29 11:17:26;;;;;;;7.00;3.28;;;18.80;78.80;;;;;;5069924;28;20020;-70
2021/05/29 11:20:14;;;;;;;5.68;2.80;;;18.90;78.00;;;;;;5063028;28;20134;-69
2021/05/29 11:22:59;;;;;;;6.32;3.13;;;19.30;76.90;;;;;;5063322;28;20039;-70
2021/05/29 11:25:28;;;;;;;10.95;4.30;;;19.10;74.30;;;;;;5073771;28;20393;-80
2021/05/29 11:27:59;;;;;;;15.10;9.27;;;18.60;77.30;;;;;;5065447;28;20056;-70
2021/05/29 11:30:26;;;;;;;;;;;18.50;77.40;;;;;;5053420;28;20028;-73
2021/05/29 11:33:12;;;;;;;16.35;9.30;;;18.30;78.50;;;;;;5058378;28;19912;-72
2021/05/29 11:35:50;;;;;;;10.70;5.65;;;19.10;76.40;;;;;;5058293;28;20044;-71
2021/05/29 11:38:34;;;;;;;24.45;16.50;;;18.90;76.80;;;;;;5060136;28;20386;-71
2021/05/29 11:41:33;;;;;;;12.75;4.32;;;19.60;74.60;;;;;;5059340;28;20037;-72
2021/05/29 11:43:58;;;;;;;12.60;8.00;;;20.60;70.10;;;;;;5051745;28;20048;-73
2021/05/29 11:46:26;;;;;;;6.53;4.50;;;21.40;68.80;;;;;;5056989;28;20027;-78
2021/05/29 11:49:02;;;;;;;31.67;21.05;;;21.50;64.80;;;;;;5058398;28;20077;-71
2021/05/29 11:51:35;;;;;;;14.00;7.32;;;21.70;65.60;;;;;;5062092;28;20025;-75
2021/05/29 11:54:15;;;;;;;7.72;3.95;;;22.50;61.90;;;;;;5067220;28;20032;-77
2021/05/29 11:56:54;;;;;;;487.85;279.63;;;22.90;59.30;;;;;;5058273;28;20276;-76
2021/05/29 11:59:22;;;;;;;244.98;141.00;;;23.30;57.80;;;;;;5063588;28;20040;-77
2021/05/29 12:01:51;;;;;;;278.15;162.75;;;22.90;56.90;;;;;;5071528;28;20474;-77
2021/05/29 12:04:31;;;;;;;1999.90;949.50;;;22.10;58.50;;;;;;5066556;28;20037;-79
2021/05/29 12:07:02;;;;;;;238.63;130.75;;;21.60;63.60;;;;;;5055872;28;20078;-88
2021/05/29 12:09:36;;;;;;;136.27;71.82;;;21.30;61.60;;;;;;5068813;28;20493;-82
2021/05/29 12:12:06;;;;;;;355.77;208.13;;;20.70;62.40;;;;;;5065698;28;20040;-83
2021/05/29 12:14:39;;;;;;;41.17;21.40;;;20.40;64.70;;;;;;5070276;28;20116;-82
2021/05/29 12:17:16;;;;;;;110.43;54.75;;;20.90;62.40;;;;;;5075483;28;20062;-83
2021/05/29 12:20:00;;;;;;;564.72;297.08;;;21.80;61.60;;;;;;5065058;28;20012;-84
2021/05/29 12:22:29;;;;;;;167.52;83.47;;;22.50;60.60;;;;;;5059350;28;20056;-82
2021/05/29 12:25:05;;;;;;;470.73;276.40;;;23.60;57.60;;;;;;5061843;28;20112;-78
2021/05/29 12:27:40;;;;;;;28.38;17.55;;;24.00;54.30;;;;;;5067585;28;20028;-80
2021/05/29 12:30:13;;;;;;;80.72;43.55;;;24.40;52.40;;;;;;5074094;28;20036;-83
2021/05/29 12:32:41;;;;;;;37.92;20.58;;;24.70;51.90;;;;;;5063374;28;20453;-80
2021/05/29 12:35:27;;;;;;;15.55;9.48;;;24.60;51.30;;;;;;5080359;28;20031;-82
2021/05/29 12:37:53;;;;;;;14.15;6.47;;;24.40;51.50;;;;;;5074418;28;20024;-81
2021/05/29 12:40:18;;;;;;;7.38;3.83;;;24.50;53.40;;;;;;5074220;28;20094;-78
2021/05/29 12:42:50;;;;;;;6.30;3.88;;;24.80;50.50;;;;;;5080942;28;20027;-81
2021/05/29 12:45:24;;;;;;;7.93;4.07;;;24.20;51.80;;;;;;5073296;28;20066;-82
2021/05/29 12:47:58;;;;;;;5.93;3.60;;;23.90;53.20;;;;;;5076649;28;20489;-79
2021/05/29 12:50:37;;;;;;;14.25;8.90;;;23.70;53.40;;;;;;5074679;28;20466;-83
2021/05/29 12:53:17;;;;;;;10.52;6.20;;;23.20;54.10;;;;;;5060649;28;20056;-81
2021/05/29 12:55:44;;;;;;;4.80;3.50;;;22.60;55.30;;;;;;5067439;28;20079;-82
2021/05/29 12:58:17;;;;;;;7.10;3.72;;;21.90;56.40;;;;;;5064718;28;20057;-82
2021/05/29 13:01:19;;;;;;;9.88;3.95;;;21.60;58.40;;;;;;5076546;28;20534;-82
2021/05/29 13:09:45;;;;;;;7.15;3.83;;;20.80;61.00;;;;;;5069579;28;20043;-81
2021/05/29 13:12:19;;;;;;;7.75;3.90;;;20.60;61.00;;;;;;5063752;28;20808;-82
2021/05/29 13:14:46;;;;;;;8.45;3.30;;;20.40;61.40;;;;;;5069426;28;20070;-80
2021/05/29 13:17:28;;;;;;;6.03;2.90;;;20.30;61.30;;;;;;5065735;28;20024;-82